createdAt,value
2022-10-05T00:00:06.414Z,4.19
2022-10-05T00:02:32.926Z,4.23
2022-10-05T00:04:59.445Z,4.18
2022-10-05T00:07:25.956Z,4.17
2022-10-05T00:09:59.747Z,4.22
2022-10-05T00:12:28.379Z,4.10
2022-10-05T00:15:00.974Z,4.11
2022-10-05T00:17:30.209Z,4.12
2022-10-05T00:19:56.916Z,4.13
2022-10-05T00:22:31.768Z,4.06
2022-10-05T00:25:00.898Z,4.01
2022-10-05T00:27:33.946Z,3.99
2022-10-05T00:30:07.915Z,4.00
2022-10-05T00:32:34.331Z,4.01
2022-10-05T00:35:00.771Z,4.00
2022-10-05T00:37:27.202Z,3.99
2022-10-05T00:39:53.728Z,3.90
2022-10-05T00:42:38.833Z,3.89
2022-10-05T00:45:08.034Z,3.88
2022-10-05T00:47:52.634Z,3.88
2022-10-05T00:50:33.109Z,3.89
2022-10-05T00:53:21.244Z,3.82
2022-10-05T00:56:01.188Z,3.78
2022-10-05T00:58:52.566Z,3.82
2022-10-05T01:01:49.608Z,3.78
2022-10-05T01:04:34.508Z,3.79
2022-10-05T01:07:23.373Z,3.80
2022-10-05T01:10:00.163Z,3.71
2022-10-05T01:12:38.104Z,3.70
2022-10-05T01:15:31.402Z,3.71
2022-10-05T01:18:11.539Z,3.67
2022-10-05T01:20:49.950Z,3.72
2022-10-05T01:23:25.404Z,3.77
2022-10-05T01:26:14.389Z,3.75
2022-10-05T01:28:52.045Z,3.73
2022-10-05T01:31:32.853Z,3.72
2022-10-05T01:34:13.095Z,3.77
2022-10-05T01:36:58.626Z,3.79
2022-10-05T01:39:56.087Z,3.74
2022-10-05T01:42:53.654Z,3.70
2022-10-05T01:45:22.958Z,3.71
2022-10-05T01:48:04.225Z,3.72
2022-10-05T01:50:36.797Z,3.71
2022-10-05T01:53:34.240Z,3.66
2022-10-05T01:56:23.196Z,3.64
2022-10-05T01:59:18.913Z,3.70
2022-10-05T02:01:52.329Z,3.72
2022-10-05T02:04:59.916Z,3.70
2022-10-05T02:07:21.916Z,3.71
2022-10-05T02:09:59.391Z,3.71
2022-10-05T02:12:32.684Z,3.72
2022-10-05T02:15:11.957Z,3.75
2022-10-05T02:17:52.890Z,3.74
2022-10-05T02:20:30.759Z,3.71
2022-10-05T02:23:13.150Z,3.68
2022-10-05T02:25:42.824Z,3.68
2022-10-05T02:28:16.632Z,3.66
2022-10-05T02:31:03.231Z,3.69
2022-10-05T02:33:31.912Z,3.69
2022-10-05T02:36:10.965Z,3.70
2022-10-05T02:38:51.591Z,3.67
2022-10-05T02:41:21.067Z,3.69
2022-10-05T02:43:50.383Z,3.67
2022-10-05T02:46:35.255Z,3.66
2022-10-05T02:49:32.951Z,3.63
2022-10-05T02:52:23.051Z,3.65
2022-10-05T02:55:15.109Z,3.67
2022-10-05T02:58:03.890Z,3.63
2022-10-05T03:00:36.787Z,3.56
2022-10-05T03:03:28.923Z,3.60
2022-10-05T03:06:05.720Z,3.59
2022-10-05T03:08:47.082Z,3.59
2022-10-05T03:11:31.684Z,3.56
2022-10-05T03:14:09.995Z,3.57
2022-10-05T03:16:46.127Z,3.54
2022-10-05T03:19:19.813Z,3.58
2022-10-05T03:22:18.443Z,3.57
2022-10-05T03:24:51.659Z,3.57
2022-10-05T03:27:40.853Z,3.50
2022-10-05T03:30:17.569Z,3.44
2022-10-05T03:33:03.036Z,3.49
2022-10-05T03:35:59.806Z,3.47
2022-10-05T03:38:37.313Z,3.50
2022-10-05T03:41:15.959Z,3.53
2022-10-05T03:43:54.602Z,3.48
2022-10-05T03:46:24.092Z,3.51
2022-10-05T03:49:16.699Z,3.54
2022-10-05T03:51:47.100Z,3.43
2022-10-05T03:54:30.068Z,3.42
2022-10-05T03:57:21.390Z,3.39
2022-10-05T04:00:19.955Z,3.50
2022-10-05T04:03:07.988Z,3.57
2022-10-05T04:06:18.694Z,3.37
2022-10-05T04:08:49.455Z,3.48
2022-10-05T04:11:37.616Z,3.59
2022-10-05T04:14:10.199Z,3.62
2022-10-05T04:16:47.384Z,3.70
2022-10-05T04:19:39.197Z,3.68
2022-10-05T04:22:17.468Z,3.68
2022-10-05T04:24:56.593Z,3.54
2022-10-05T04:27:32.000Z,3.36
2022-10-05T04:30:10.172Z,3.37
2022-10-05T04:32:43.761Z,3.43
2022-10-05T04:35:41.009Z,3.48
2022-10-05T04:38:38.331Z,3.47
2022-10-05T04:41:23.562Z,3.54
2022-10-05T04:44:41.366Z,3.54
2022-10-05T04:47:10.966Z,3.47
2022-10-05T04:50:01.679Z,3.45
2022-10-05T04:52:40.273Z,3.41
2022-10-05T04:55:31.713Z,3.40
2022-10-05T04:58:23.978Z,3.41
2022-10-05T05:01:21.660Z,3.38
2022-10-05T05:04:10.365Z,3.50
2022-10-05T05:06:49.469Z,3.51
2022-10-05T05:09:58.890Z,3.43
2022-10-05T05:12:31.089Z,3.43
2022-10-05T05:15:16.356Z,3.42
2022-10-05T05:18:21.915Z,3.69
2022-10-05T05:21:00.038Z,3.67
2022-10-05T05:23:32.814Z,3.52
2022-10-05T05:26:08.005Z,3.49
2022-10-05T05:29:12.000Z,3.49
2022-10-05T05:32:01.405Z,3.48
2022-10-05T05:34:34.351Z,3.49
2022-10-05T05:37:18.986Z,3.54
2022-10-05T05:40:22.206Z,3.57
2022-10-05T05:43:08.587Z,3.53
2022-10-05T05:45:41.697Z,3.62
2022-10-05T05:48:21.326Z,3.66
2022-10-05T05:51:12.918Z,3.68
2022-10-05T05:53:49.571Z,3.77
2022-10-05T05:56:34.682Z,3.86
2022-10-05T05:59:22.515Z,3.93
2022-10-05T06:01:54.018Z,3.95
2022-10-05T06:04:28.331Z,4.03
2022-10-05T06:06:58.126Z,4.13
2022-10-05T06:09:39.114Z,4.15
2022-10-05T06:12:21.132Z,4.34
2022-10-05T06:15:00.149Z,4.40
2022-10-05T06:17:35.921Z,4.45
2022-10-05T06:20:11.574Z,4.57
2022-10-05T06:22:42.798Z,4.69
2022-10-05T06:25:25.828Z,4.79
2022-10-05T06:28:16.187Z,4.97
2022-10-05T06:30:54.226Z,5.10
2022-10-05T06:33:39.120Z,5.24
2022-10-05T06:36:08.450Z,5.32
2022-10-05T06:39:17.469Z,5.42
2022-10-05T06:42:19.540Z,6.71
2022-10-05T06:45:02.214Z,8.44
2022-10-05T06:47:43.939Z,9.99
2022-10-05T06:50:22.662Z,11.39
2022-10-05T06:53:09.025Z,12.56
2022-10-05T06:55:48.557Z,13.31
2022-10-05T06:58:21.040Z,12.86
2022-10-05T07:00:54.243Z,12.99
2022-10-05T07:03:38.747Z,14.08
2022-10-05T07:06:25.539Z,14.91
2022-10-05T07:09:14.245Z,14.70
2022-10-05T07:12:05.189Z,15.15
2022-10-05T07:14:37.704Z,15.97
2022-10-05T07:17:21.523Z,14.75
2022-10-05T07:20:03.740Z,14.98
2022-10-05T07:22:39.456Z,15.42
2022-10-05T07:25:26.142Z,15.57
2022-10-05T07:28:15.699Z,16.99
2022-10-05T07:31:03.753Z,17.51
2022-10-05T07:33:43.246Z,16.97
2022-10-05T07:36:31.327Z,16.76
2022-10-05T07:39:17.087Z,16.10
2022-10-05T07:42:04.449Z,16.99
2022-10-05T07:44:39.021Z,16.50
2022-10-05T07:47:23.501Z,16.13
2022-10-05T07:50:19.698Z,15.61
2022-10-05T07:52:54.133Z,15.24
2022-10-05T07:55:49.159Z,15.28
2022-10-05T07:58:47.193Z,14.99
2022-10-05T08:01:23.471Z,14.81
2022-10-05T08:04:00.893Z,15.09
2022-10-05T08:06:35.783Z,15.04
2022-10-05T08:09:13.443Z,14.65
2022-10-05T08:12:20.546Z,14.99
2022-10-05T08:15:14.798Z,14.53
2022-10-05T08:18:05.665Z,15.15
2022-10-05T08:20:58.194Z,14.79
2022-10-05T08:23:42.648Z,15.27
2022-10-05T08:26:17.861Z,15.19
2022-10-05T08:28:59.856Z,16.13
2022-10-05T08:31:29.794Z,17.01
2022-10-05T08:34:23.573Z,17.32
2022-10-05T08:36:59.347Z,17.06
2022-10-05T08:39:39.044Z,17.61
2022-10-05T08:42:30.485Z,17.11
2022-10-05T08:45:14.576Z,17.18
2022-10-05T08:48:12.687Z,17.05
2022-10-05T08:50:57.420Z,16.70
2022-10-05T08:53:30.020Z,16.69
2022-10-05T08:56:19.723Z,16.38
2022-10-05T08:58:49.589Z,16.93
2022-10-05T09:01:21.449Z,17.55
2022-10-05T09:04:10.417Z,17.46
2022-10-05T09:06:58.117Z,17.24
2022-10-05T09:09:48.815Z,17.12
2022-10-05T09:12:21.031Z,16.77
2022-10-05T09:15:24.246Z,16.68
2022-10-05T09:18:16.984Z,16.85
2022-10-05T09:21:06.503Z,16.61
2022-10-05T09:23:43.139Z,17.09
2022-10-05T09:26:28.537Z,17.44
2022-10-05T09:29:16.822Z,17.92
2022-10-05T09:31:52.930Z,17.93
2022-10-05T09:34:34.964Z,17.73
2022-10-05T09:37:29.279Z,17.86
2022-10-05T09:40:30.395Z,17.87
2022-10-05T09:42:56.931Z,17.83
2022-10-05T09:45:51.220Z,17.65
2022-10-05T09:48:33.104Z,17.29
2022-10-05T09:51:15.743Z,17.16
2022-10-05T09:54:18.363Z,17.47
2022-10-05T09:57:15.746Z,17.02
2022-10-05T10:00:10.377Z,17.43
2022-10-05T10:02:55.842Z,17.51
2022-10-05T10:05:34.645Z,17.55
2022-10-05T10:08:39.209Z,17.60
2022-10-05T10:11:24.567Z,17.31
2022-10-05T10:14:16.006Z,17.13
2022-10-05T10:16:54.851Z,17.35
2022-10-05T10:19:43.114Z,17.10
2022-10-05T10:22:42.203Z,17.07
2022-10-05T10:25:27.999Z,17.08
2022-10-05T10:28:42.792Z,17.16
2022-10-05T10:31:24.564Z,17.23
2022-10-05T10:34:18.725Z,17.35
2022-10-05T10:37:13.418Z,17.32
2022-10-05T10:40:07.836Z,17.32
2022-10-05T10:43:09.502Z,17.19
2022-10-05T10:45:35.968Z,17.23
2022-10-05T10:48:05.201Z,17.24
2022-10-05T10:51:24.532Z,17.15
2022-10-05T10:54:20.928Z,17.03
2022-10-05T10:56:58.596Z,17.21
2022-10-05T11:00:03.161Z,17.41
2022-10-05T11:07:07.754Z,17.89
2022-10-05T11:10:00.808Z,18.09
2022-10-05T11:12:34.386Z,18.17
2022-10-05T11:15:23.006Z,18.24
2022-10-05T11:18:12.872Z,18.41
2022-10-05T11:21:17.091Z,18.02
2022-10-05T11:24:22.568Z,18.35
2022-10-05T11:27:15.459Z,18.31
2022-10-05T11:30:16.110Z,18.55
2022-10-05T11:33:11.938Z,18.31
2022-10-05T11:36:03.397Z,18.59
2022-10-05T11:38:48.221Z,18.52
2022-10-05T11:41:34.239Z,18.30
2022-10-05T11:44:23.863Z,18.30
2022-10-05T11:46:59.506Z,18.28
2022-10-05T11:49:31.957Z,18.28
2022-10-05T11:52:25.489Z,18.52
2022-10-05T11:55:14.877Z,18.12
2022-10-05T11:58:07.611Z,18.31
2022-10-05T12:00:46.664Z,18.28
2022-10-05T12:04:02.788Z,18.36
2022-10-05T12:06:36.403Z,18.05
2022-10-05T12:09:21.393Z,18.26
2022-10-05T12:12:00.128Z,18.13
2022-10-05T12:14:37.223Z,18.04
2022-10-05T12:17:15.891Z,18.08
2022-10-05T12:19:47.991Z,18.30
2022-10-05T12:22:37.250Z,18.26
2022-10-05T12:25:22.251Z,18.37
2022-10-05T12:27:53.558Z,18.51
2022-10-05T12:30:49.049Z,18.41
2022-10-05T12:33:23.979Z,18.28
2022-10-05T12:35:56.946Z,18.31
2022-10-05T12:38:40.753Z,18.37
2022-10-05T12:41:32.338Z,18.32
2022-10-05T12:44:34.270Z,18.38
2022-10-05T12:47:16.623Z,18.38
2022-10-05T12:49:46.130Z,18.40
2022-10-05T12:52:44.021Z,18.42
2022-10-05T12:55:15.117Z,18.55
2022-10-05T12:58:02.331Z,18.51
2022-10-05T13:00:32.543Z,18.51
2022-10-05T13:03:17.757Z,18.43
2022-10-05T13:05:44.754Z,18.56
2022-10-05T13:08:14.431Z,18.44
2022-10-05T13:10:48.859Z,18.41
2022-10-05T13:13:43.345Z,18.54
2022-10-05T13:16:33.961Z,18.40
2022-10-05T13:19:39.320Z,18.34
2022-10-05T13:22:50.748Z,18.11
2022-10-05T13:25:57.075Z,18.00
2022-10-05T13:28:39.276Z,18.03
2022-10-05T13:31:30.918Z,17.86
2022-10-05T13:34:26.347Z,17.96
2022-10-05T13:37:00.659Z,17.99
2022-10-05T13:39:44.258Z,17.96
2022-10-05T13:42:32.743Z,17.92
2022-10-05T13:45:23.183Z,18.05
2022-10-05T13:48:22.358Z,17.93
2022-10-05T13:51:06.929Z,17.91
2022-10-05T13:53:53.142Z,17.89
2022-10-05T13:56:22.443Z,17.78
2022-10-05T13:58:54.781Z,17.70
2022-10-05T14:01:25.106Z,17.68
2022-10-05T14:04:17.059Z,17.60
2022-10-05T14:06:43.956Z,17.64
2022-10-05T14:09:19.479Z,17.61
2022-10-05T14:11:51.055Z,17.61
2022-10-05T14:14:25.758Z,17.64
2022-10-05T14:16:57.320Z,17.63
2022-10-05T14:19:23.885Z,17.57
2022-10-05T14:22:11.495Z,17.56
2022-10-05T14:24:48.160Z,17.47
2022-10-05T14:27:26.836Z,17.49
2022-10-05T14:30:19.185Z,17.53
2022-10-05T14:33:03.696Z,17.49
2022-10-05T14:35:37.249Z,17.44
2022-10-05T14:38:21.209Z,17.49
2022-10-05T14:41:08.264Z,17.41
2022-10-05T14:43:35.019Z,17.36
2022-10-05T14:46:28.126Z,17.31
2022-10-05T14:49:24.440Z,17.26
2022-10-05T14:51:53.364Z,17.15
2022-10-05T14:54:57.419Z,17.16
2022-10-05T14:57:37.509Z,17.11
2022-10-05T15:00:11.930Z,17.09
2022-10-05T15:02:59.504Z,17.03
2022-10-05T15:05:44.645Z,16.94
2022-10-05T15:08:33.900Z,16.91
2022-10-05T15:11:06.458Z,16.84
2022-10-05T15:13:38.421Z,16.76
2022-10-05T15:16:17.004Z,16.73
2022-10-05T15:18:57.766Z,16.67
2022-10-05T15:21:43.201Z,16.55
2022-10-05T15:24:20.185Z,16.52
2022-10-05T15:26:53.055Z,16.48
2022-10-05T15:29:29.440Z,16.40
2022-10-05T15:32:32.345Z,16.30
2022-10-05T15:35:17.622Z,16.19
2022-10-05T15:37:49.207Z,16.17
2022-10-05T15:40:44.523Z,16.04
2022-10-05T15:43:16.438Z,15.90
2022-10-05T15:46:14.348Z,15.82
2022-10-05T15:48:45.903Z,15.76
2022-10-05T15:51:35.336Z,15.62
2022-10-05T15:54:42.176Z,15.52
2022-10-05T15:57:08.567Z,15.41
2022-10-05T15:59:46.069Z,15.26
2022-10-05T16:02:19.578Z,15.13
2022-10-05T16:05:02.423Z,15.03
2022-10-05T16:08:02.112Z,14.88
2022-10-05T16:10:34.012Z,14.73
2022-10-05T16:13:19.255Z,14.58
2022-10-05T16:15:59.388Z,14.43
2022-10-05T16:18:31.659Z,14.36
2022-10-05T16:21:19.995Z,14.21
2022-10-05T16:23:55.436Z,14.13
2022-10-05T16:26:40.732Z,14.01
2022-10-05T16:29:14.361Z,13.90
2022-10-05T16:31:58.827Z,13.76
2022-10-05T16:34:56.155Z,13.65
2022-10-05T16:37:37.681Z,13.48
2022-10-05T16:40:13.196Z,13.42
2022-10-05T16:43:17.862Z,13.21
2022-10-05T16:46:15.108Z,13.33
2022-10-05T16:49:04.945Z,13.30
2022-10-05T16:51:47.521Z,13.35
2022-10-05T16:54:21.568Z,13.42
2022-10-05T16:57:05.563Z,13.41
2022-10-05T17:00:14.846Z,13.43
2022-10-05T17:02:58.459Z,13.40
2022-10-05T17:05:56.047Z,13.37
2022-10-05T17:08:30.315Z,13.30
2022-10-05T17:11:17.138Z,13.13
2022-10-05T17:13:58.762Z,12.98
2022-10-05T17:16:59.180Z,12.83
2022-10-05T17:19:37.906Z,12.75
2022-10-05T17:22:13.081Z,12.71
2022-10-05T17:24:49.493Z,12.72
2022-10-05T17:27:23.878Z,12.59
2022-10-05T17:29:51.903Z,12.58
2022-10-05T17:32:18.364Z,12.57
2022-10-05T17:35:02.762Z,12.60
2022-10-05T17:37:40.372Z,12.61
2022-10-05T17:40:34.662Z,12.61
2022-10-05T17:43:25.395Z,12.54
2022-10-05T17:45:55.706Z,12.43
2022-10-05T17:49:02.357Z,12.31
2022-10-05T17:51:47.517Z,12.27
2022-10-05T17:54:47.152Z,12.30
2022-10-05T17:57:23.758Z,12.34
2022-10-05T17:59:52.929Z,12.23
2022-10-05T18:02:19.598Z,12.10
2022-10-05T18:05:08.871Z,12.01
2022-10-05T18:07:37.394Z,11.93
2022-10-05T18:10:04.370Z,11.83
2022-10-05T18:12:36.880Z,11.74
2022-10-05T18:15:06.344Z,11.68
2022-10-05T18:17:41.022Z,11.64
2022-10-05T18:20:18.615Z,11.59
2022-10-05T18:22:46.870Z,11.51
2022-10-05T18:25:29.454Z,11.44
2022-10-05T18:28:06.231Z,11.40
2022-10-05T18:30:41.474Z,11.31
2022-10-05T18:33:40.345Z,11.21
2022-10-05T18:36:44.433Z,11.09
2022-10-05T18:39:42.182Z,11.12
2022-10-05T18:42:30.368Z,11.05
2022-10-05T18:45:23.839Z,10.98
2022-10-05T18:48:35.620Z,10.93
2022-10-05T18:51:17.827Z,10.86
2022-10-05T18:54:12.591Z,10.82
2022-10-05T18:56:52.950Z,10.78
2022-10-05T18:59:32.180Z,10.77
2022-10-05T19:02:16.461Z,10.71
2022-10-05T19:05:09.164Z,10.65
2022-10-05T19:08:00.877Z,10.60
2022-10-05T19:10:50.682Z,10.58
2022-10-05T19:13:31.849Z,10.58
2022-10-05T19:16:34.479Z,10.53
2022-10-05T19:19:29.376Z,10.46
2022-10-05T19:22:18.105Z,10.44
2022-10-05T19:25:04.263Z,10.38
2022-10-05T19:28:08.959Z,10.35
2022-10-05T19:31:23.391Z,10.36
2022-10-05T19:34:16.830Z,10.32
2022-10-05T19:36:54.608Z,10.31
2022-10-05T19:39:38.360Z,10.24
2022-10-05T19:42:31.852Z,10.22
2022-10-05T19:45:22.679Z,10.17
2022-10-05T19:48:04.124Z,10.14
2022-10-05T19:50:33.715Z,10.08
2022-10-05T19:53:24.344Z,10.03
2022-10-05T19:55:50.983Z,10.02
2022-10-05T19:58:23.765Z,10.02
2022-10-05T20:01:06.831Z,10.02
2022-10-05T20:03:37.895Z,9.97
2022-10-05T20:06:06.689Z,9.94
2022-10-05T20:08:45.055Z,9.90
2022-10-05T20:11:17.182Z,9.88
2022-10-05T20:13:46.540Z,9.94
2022-10-05T20:16:31.715Z,9.91
2022-10-05T20:19:16.872Z,9.85
2022-10-05T20:21:59.891Z,9.94
2022-10-05T20:24:28.405Z,9.87
2022-10-05T20:27:08.769Z,9.82
2022-10-05T20:29:39.106Z,9.80
2022-10-05T20:32:12.678Z,9.75
2022-10-05T20:34:47.146Z,9.73
2022-10-05T20:37:18.766Z,9.69
2022-10-05T20:39:47.185Z,9.70
2022-10-05T20:42:14.302Z,9.71
2022-10-05T20:44:40.914Z,9.62
2022-10-05T20:47:09.853Z,9.65
2022-10-05T20:49:38.379Z,9.65
2022-10-05T20:52:06.300Z,9.61
2022-10-05T20:54:32.876Z,9.53
2022-10-05T20:56:59.394Z,9.56
2022-10-05T20:59:26.239Z,9.55
2022-10-05T21:01:52.768Z,9.43
2022-10-05T21:04:21.781Z,9.45
2022-10-05T21:06:48.572Z,9.44
2022-10-05T21:09:19.286Z,9.38
2022-10-05T21:11:55.472Z,9.36
2022-10-05T21:14:23.682Z,9.30
2022-10-05T21:16:50.940Z,9.33
2022-10-05T21:19:17.544Z,9.27
2022-10-05T21:21:46.064Z,9.23
2022-10-05T21:24:15.140Z,9.21
2022-10-05T21:26:42.877Z,9.15
2022-10-05T21:29:12.664Z,9.18
2022-10-05T21:31:40.319Z,9.13
2022-10-05T21:34:07.579Z,9.16
2022-10-05T21:36:34.600Z,9.10
2022-10-05T21:39:01.658Z,9.10
2022-10-05T21:41:28.176Z,9.06
2022-10-05T21:43:54.672Z,9.04
2022-10-05T21:46:25.322Z,9.04
2022-10-05T21:48:52.860Z,8.92
2022-10-05T21:51:20.258Z,8.94
2022-10-05T21:53:51.897Z,8.92
2022-10-05T21:56:21.530Z,8.91
2022-10-05T21:58:49.285Z,8.85
2022-10-05T22:01:20.161Z,8.97
2022-10-05T22:03:48.747Z,9.03
2022-10-05T22:06:15.237Z,9.06
2022-10-05T22:08:41.687Z,9.02
2022-10-05T22:11:14.112Z,9.07
2022-10-05T22:13:44.435Z,9.01
2022-10-05T22:16:11.925Z,8.96
2022-10-05T22:18:38.820Z,9.02
2022-10-05T22:21:07.898Z,9.03
2022-10-05T22:23:35.715Z,9.04
2022-10-05T22:26:03.171Z,9.04
2022-10-05T22:28:31.565Z,9.14
2022-10-05T22:31:01.779Z,9.15
2022-10-05T22:33:28.318Z,9.09
2022-10-05T22:35:54.781Z,9.09
2022-10-05T22:38:21.263Z,9.16
2022-10-05T22:40:47.752Z,9.16
2022-10-05T22:43:14.224Z,9.15
2022-10-05T22:45:40.803Z,9.04
2022-10-05T22:48:07.266Z,9.08
2022-10-05T22:50:34.097Z,9.03
2022-10-05T22:53:00.888Z,9.04
2022-10-05T22:55:27.445Z,9.12
2022-10-05T22:57:53.900Z,9.10
2022-10-05T23:00:24.734Z,9.16
2022-10-05T23:02:54.233Z,9.14
2022-10-05T23:05:20.736Z,9.18
2022-10-05T23:07:47.295Z,9.14
2022-10-05T23:10:16.894Z,9.16
2022-10-05T23:12:44.311Z,9.24
2022-10-05T23:15:11.957Z,9.26
2022-10-05T23:17:39.293Z,9.22
2022-10-05T23:20:07.284Z,9.20
2022-10-05T23:22:37.898Z,9.06
2022-10-05T23:25:06.341Z,9.12
2022-10-05T23:27:37.728Z,9.08
2022-10-05T23:30:05.665Z,9.03
2022-10-05T23:32:32.341Z,9.04
2022-10-05T23:34:58.757Z,9.12
2022-10-05T23:37:27.952Z,9.01
2022-10-05T23:39:54.416Z,9.12
2022-10-05T23:42:20.912Z,9.12
2022-10-05T23:44:47.358Z,9.13
2022-10-05T23:47:13.805Z,9.04
2022-10-05T23:49:40.262Z,9.17
2022-10-05T23:52:06.710Z,9.20
2022-10-05T23:54:33.131Z,9.24
2022-10-05T23:56:59.584Z,9.26
2022-10-05T23:59:26.046Z,9.30
